Time;durP1;ratioP1;P1;durP2;ratioP2;P2;SDS_P1;SDS_P2;PMS_P1;PMS_P2;Temp;Humidity;BMP_temperature;BMP_pressure;BME280_temperature;BME280_humidity;BME280_pressure;Samples;Min_cycle;Max_cycle;Signal;HPM_P1;HPM_P2
2021/08/31 00:01:12;;;;;;;0.10;0.10;;;;;;;12.32;96.00;102280.84;10478353;28;20274;-63
2021/08/31 00:06:12;;;;;;;0.08;0.08;;;;;;;12.36;96.03;102284.91;10471883;28;20021;-62
2021/08/31 00:11:13;;;;;;;0.10;0.10;;;;;;;12.38;95.70;102291.81;10490101;28;20020;-61
2021/08/31 00:16:13;;;;;;;0.00;0.00;;;;;;;12.39;95.82;102290.00;10493683;28;20024;-63
2021/08/31 00:21:14;;;;;;;0.10;0.10;;;;;;;12.36;96.22;102296.47;10486866;28;20025;-62
2021/08/31 00:26:14;;;;;;;0.10;0.10;;;;;;;12.37;95.82;102289.31;10484942;28;20391;-63
2021/08/31 00:31:14;;;;;;;0.10;0.10;;;;;;;12.37;95.24;102284.81;10489899;28;20017;-62
2021/08/31 00:36:14;;;;;;;0.00;0.00;;;;;;;12.33;94.95;102275.34;10466646;28;20383;-62
2021/08/31 00:41:15;;;;;;;0.10;0.10;;;;;;;12.28;95.08;102277.59;10488766;28;20460;-61
2021/08/31 00:46:17;;;;;;;0.00;0.00;;;;;;;12.26;94.76;102273.38;10485586;28;20017;-63
2021/08/31 00:51:20;;;;;;;0.10;0.10;;;;;;;12.17;94.62;102275.88;10486244;28;20027;-63
2021/08/31 00:56:21;;;;;;;0.13;0.13;;;;;;;12.11;94.81;102276.41;10485583;28;20051;-63
2021/08/31 01:01:21;;;;;;;0.10;0.10;;;;;;;12.05;95.13;102281.44;10492639;28;20024;-62
2021/08/31 01:06:21;;;;;;;0.00;0.00;;;;;;;12.00;94.79;102273.81;10486635;28;20106;-63
2021/08/31 01:11:22;;;;;;;0.10;0.10;;;;;;;11.97;95.13;102282.94;10493568;28;20016;-62
2021/08/31 01:16:22;;;;;;;0.10;0.10;;;;;;;11.92;94.91;102289.66;10494038;28;20070;-62
2021/08/31 01:21:23;;;;;;;0.10;0.10;;;;;;;11.87;94.92;102292.72;10481182;28;20536;-60
2021/08/31 01:26:25;;;;;;;0.10;0.10;;;;;;;11.84;95.60;102294.75;10478689;28;20016;-60
2021/08/31 01:31:25;;;;;;;0.10;0.10;;;;;;;11.84;95.70;102302.78;10485418;28;20283;-62
2021/08/31 01:36:26;;;;;;;0.10;0.10;;;;;;;11.83;95.94;102298.41;10489012;28;20047;-62
2021/08/31 01:41:27;;;;;;;0.10;0.10;;;;;;;11.81;95.79;102295.91;10491327;28;20024;-62
2021/08/31 01:46:27;;;;;;;0.10;0.10;;;;;;;11.78;95.70;102297.00;10480342;28;20095;-62
2021/08/31 01:51:27;;;;;;;0.00;0.00;;;;;;;11.70;95.36;102302.16;10476370;28;20019;-62
2021/08/31 01:56:28;;;;;;;0.10;0.10;;;;;;;11.60;95.64;102295.88;10478771;28;20254;-62
2021/08/31 02:01:28;;;;;;;0.10;0.10;;;;;;;11.52;95.49;102304.56;10478048;28;20025;-61
2021/08/31 02:06:29;;;;;;;0.10;0.10;;;;;;;11.49;96.03;102303.94;10478590;28;20391;-62
2021/08/31 02:11:29;;;;;;;0.10;0.10;;;;;;;11.46;95.61;102290.84;10481419;28;20470;-62
2021/08/31 02:16:29;;;;;;;0.10;0.10;;;;;;;11.40;95.75;102307.38;10461468;28;20040;-63
2021/08/31 02:21:29;;;;;;;0.00;0.00;;;;;;;11.35;96.03;102299.78;10477994;28;20282;-62
2021/08/31 02:26:31;;;;;;;0.10;0.10;;;;;;;11.30;96.39;102297.50;10484502;28;20069;-62
2021/08/31 02:31:32;;;;;;;0.10;0.10;;;;;;;11.30;96.98;102296.66;10482305;28;20112;-62
2021/08/31 02:36:32;;;;;;;0.10;0.10;;;;;;;11.31;97.74;102296.53;10474782;28;20506;-59
2021/08/31 02:41:32;;;;;;;0.10;0.10;;;;;;;11.30;97.52;102297.50;10474409;28;20025;-62
2021/08/31 02:46:33;;;;;;;0.10;0.10;;;;;;;11.29;97.54;102298.47;10476555;28;20027;-61
2021/08/31 02:51:34;;;;;;;0.10;0.10;;;;;;;11.28;97.10;102296.75;10471372;28;20380;-62
2021/08/31 02:56:34;;;;;;;0.10;0.10;;;;;;;11.31;97.09;102293.88;10477818;28;20032;-61
2021/08/31 03:01:38;;;;;;;0.10;0.10;;;;;;;11.41;96.84;102290.44;10477320;28;20091;-61
2021/08/31 03:06:39;;;;;;;0.10;0.10;;;;;;;11.45;96.80;102300.69;10474947;28;20283;-60
2021/08/31 03:11:39;;;;;;;0.10;0.10;;;;;;;11.45;96.76;102291.84;10480759;28;20028;-61
2021/08/31 03:16:39;;;;;;;0.10;0.10;;;;;;;11.50;96.82;102305.66;10472695;28;20471;-62
2021/08/31 03:21:40;;;;;;;0.00;0.00;;;;;;;11.48;96.86;102305.78;10484536;28;20560;-63
2021/08/31 03:26:40;;;;;;;0.10;0.10;;;;;;;11.56;96.68;102305.97;10481937;28;20786;-62
2021/08/31 03:31:41;;;;;;;0.10;0.10;;;;;;;11.59;96.82;102306.69;10482570;28;20029;-62
2021/08/31 03:36:41;;;;;;;0.10;0.10;;;;;;;11.64;96.90;102304.50;10482493;28;20035;-61
2021/08/31 03:41:42;;;;;;;0.10;0.10;;;;;;;11.68;96.43;102306.75;10475817;28;20029;-62
2021/08/31 03:46:42;;;;;;;0.10;0.10;;;;;;;11.70;96.61;102294.13;10478929;28;20017;-62
2021/08/31 03:51:42;;;;;;;0.10;0.10;;;;;;;11.70;96.70;102299.47;10472656;28;20251;-60
2021/08/31 03:56:43;;;;;;;0.10;0.10;;;;;;;11.67;96.58;102302.41;10479492;28;20024;-60
2021/08/31 04:01:43;;;;;;;0.10;0.10;;;;;;;11.62;96.29;102307.28;10471480;28;20101;-60
2021/08/31 04:06:43;;;;;;;0.00;0.00;;;;;;;11.59;96.20;102301.38;10472460;28;20710;-62
2021/08/31 04:11:44;;;;;;;0.00;0.00;;;;;;;11.55;96.40;102316.78;10482352;28;20020;-62
2021/08/31 04:16:44;;;;;;;0.10;0.10;;;;;;;11.49;96.66;102319.94;10523452;28;20024;-62
2021/08/31 04:21:44;;;;;;;0.10;0.10;;;;;;;11.49;96.22;102322.63;10535630;28;20023;-60
2021/08/31 04:26:44;;;;;;;0.10;0.10;;;;;;;11.45;96.33;102327.38;10532032;28;20024;-61
2021/08/31 04:31:45;;;;;;;0.05;0.05;;;;;;;11.40;96.16;102329.56;10527079;28;20035;-62
2021/08/31 04:36:45;;;;;;;0.00;0.00;;;;;;;11.33;96.48;102329.25;10535504;28;20043;-59
2021/08/31 04:41:45;;;;;;;0.00;0.00;;;;;;;11.36;96.57;102330.81;10535270;28;20031;-62
2021/08/31 04:46:46;;;;;;;0.10;0.10;;;;;;;11.70;95.71;102331.50;10523959;28;20270;-61
2021/08/31 04:51:47;;;;;;;0.10;0.10;;;;;;;12.19;93.87;102335.34;10535414;28;20031;-61
2021/08/31 04:56:47;;;;;;;0.10;0.10;;;;;;;12.90;91.35;102331.78;10542564;28;20028;-62
2021/08/31 05:01:47;;;;;;;0.10;0.10;;;;;;;13.59;88.81;102333.56;10531517;28;20314;-63
2021/08/31 05:06:47;;;;;;;0.10;0.10;;;;;;;14.32;85.98;102327.63;10542636;28;20066;-63
2021/08/31 05:11:48;;;;;;;0.10;0.10;;;;;;;15.06;81.94;102324.00;10542583;28;20125;-62
2021/08/31 05:16:48;;;;;;;0.10;0.10;;;;;;;15.81;79.52;102327.19;10530650;22;20040;-60
2021/08/31 05:21:50;;;;;;;0.10;0.10;;;;;;;16.50;78.33;102322.72;10538405;28;20058;-61
2021/08/31 05:26:50;;;;;;;0.10;0.10;;;;;;;17.35;74.49;102330.69;10539554;28;20024;-60
2021/08/31 05:31:51;;;;;;;0.30;0.27;;;;;;;18.04;72.80;102326.63;10514939;28;20477;-61
2021/08/31 05:36:51;;;;;;;0.10;0.10;;;;;;;18.75;69.84;102329.44;10496061;28;20056;-60
2021/08/31 05:41:51;;;;;;;0.10;0.10;;;;;;;19.38;68.24;102333.75;10495397;28;20065;-60
2021/08/31 05:46:52;;;;;;;0.00;0.00;;;;;;;20.04;64.93;102327.75;10479094;28;20023;-60
2021/08/31 05:51:53;;;;;;;0.10;0.10;;;;;;;20.25;63.73;102330.59;10510128;28;20028;-61
2021/08/31 05:56:54;;;;;;;0.10;0.10;;;;;;;20.28;62.29;102338.31;10517483;28;20020;-61
2021/08/31 06:01:54;;;;;;;0.10;0.10;;;;;;;20.32;62.45;102349.59;10540677;28;20398;-61
2021/08/31 06:06:55;;;;;;;0.10;0.10;;;;;;;20.26;60.60;102340.38;10539549;28;20024;-61
2021/08/31 06:11:56;;;;;;;0.03;0.03;;;;;;;20.85;61.42;102346.78;10533517;28;20024;-62
2021/08/31 06:16:57;;;;;;;0.00;0.00;;;;;;;21.16;58.94;102349.22;10515057;28;20020;-61
2021/08/31 06:21:58;;;;;;;0.00;0.00;;;;;;;21.58;59.38;102359.22;10521292;28;20039;-59
2021/08/31 06:26:58;;;;;;;0.10;0.10;;;;;;;22.26;58.21;102358.72;10525575;28;20107;-59
2021/08/31 06:31:58;;;;;;;0.10;0.10;;;;;;;20.96;59.18;102365.25;10532808;28;20095;-57
2021/08/31 06:36:59;;;;;;;0.10;0.10;;;;;;;21.36;60.35;102373.81;10513448;28;20034;-58
2021/08/31 06:41:59;;;;;;;0.00;0.00;;;;;;;20.48;61.03;102370.25;10519163;28;20032;-59
2021/08/31 06:47:00;;;;;;;0.10;0.10;;;;;;;19.16;65.75;102377.78;10511855;28;20071;-61
2021/08/31 06:52:00;;;;;;;0.20;0.20;;;;;;;19.02;66.74;102378.56;10538967;28;20016;-59
2021/08/31 06:57:01;;;;;;;0.00;0.00;;;;;;;19.27;65.60;102371.97;10527351;28;20027;-58
2021/08/31 07:02:01;;;;;;;0.00;0.00;;;;;;;19.19;68.20;102380.13;10537992;28;20027;-60
2021/08/31 07:07:02;;;;;;;0.10;0.10;;;;;;;19.79;64.49;102373.97;10537864;28;20431;-60
2021/08/31 07:12:02;;;;;;;0.00;0.00;;;;;;;20.44;64.08;102368.91;10511851;28;20055;-59
2021/08/31 07:17:03;;;;;;;0.00;0.00;;;;;;;21.27;62.39;102375.81;10536619;28;20032;-60
2021/08/31 07:22:03;;;;;;;0.10;0.10;;;;;;;22.09;59.49;102378.00;10537624;28;20081;-60
2021/08/31 07:27:04;;;;;;;0.10;0.10;;;;;;;22.30;58.98;102381.72;10532129;28;20021;-60
2021/08/31 07:32:05;;;;;;;0.10;0.10;;;;;;;22.62;58.00;102376.66;10524937;28;20027;-60
2021/08/31 07:37:06;;;;;;;0.03;0.03;;;;;;;23.15;56.17;102376.88;10517073;28;20439;-59
2021/08/31 07:42:07;;;;;;;0.00;0.00;;;;;;;23.35;55.96;102391.34;10536876;28;20025;-59
2021/08/31 07:47:07;;;;;;;0.10;0.10;;;;;;;22.95;57.02;102395.84;10536454;28;20024;-60
2021/08/31 07:52:08;;;;;;;0.10;0.10;;;;;;;23.00;59.03;102399.63;10536295;28;20088;-58
2021/08/31 07:57:08;;;;;;;0.10;0.10;;;;;;;23.45;56.45;102397.25;10536489;28;20360;-60
2021/08/31 08:02:09;;;;;;;0.03;0.03;;;;;;;23.28;57.77;102402.22;10532419;28;20114;-61
2021/08/31 08:07:09;;;;;;;0.10;0.10;;;;;;;22.83;57.14;102392.84;10517851;28;20110;-59
2021/08/31 08:12:11;;;;;;;0.10;0.10;;;;;;;23.21;58.72;102400.53;10530511;28;20021;-60
2021/08/31 08:17:12;;;;;;;0.00;0.00;;;;;;;23.48;56.44;102405.00;10531103;28;20023;-59
2021/08/31 08:22:13;;;;;;;0.00;0.00;;;;;;;23.40;57.53;102401.63;10521042;28;20024;-60
2021/08/31 08:27:13;;;;;;;0.10;0.10;;;;;;;23.42;58.64;102411.25;10515081;28;20020;-60
2021/08/31 08:32:14;;;;;;;0.10;0.10;;;;;;;23.64;56.98;102417.34;10531611;28;20534;-60
2021/08/31 08:37:14;;;;;;;0.00;0.00;;;;;;;23.53;57.52;102420.66;10543800;28;20027;-60
2021/08/31 08:42:15;;;;;;;0.10;0.10;;;;;;;23.48;56.42;102429.47;10525369;28;20076;-60
2021/08/31 08:47:16;;;;;;;0.10;0.10;;;;;;;23.43;57.07;102431.94;10525161;28;20399;-59
2021/08/31 08:52:17;;;;;;;0.10;0.10;;;;;;;23.19;58.88;102432.53;10515175;28;20024;-60
2021/08/31 08:57:18;;;;;;;0.10;0.10;;;;;;;23.18;59.78;102428.94;10524986;28;20036;-59
2021/08/31 09:02:37;;;;;;;0.00;0.00;;;;;;;23.20;59.66;102439.63;10526800;28;20069;-60
2021/08/31 09:07:40;;;;;;;0.00;0.00;;;;;;;23.47;61.81;102424.22;10524964;28;20031;-60
2021/08/31 09:12:42;;;;;;;0.00;0.00;;;;;;;23.34;59.16;102422.31;10541316;28;20058;-59
2021/08/31 09:18:11;;;;;;;0.10;0.10;;;;;;;22.84;60.75;102432.56;10532142;28;20037;-60
2021/08/31 09:23:20;;;;;;;0.10;0.10;;;;;;;22.55;59.64;102434.50;10481568;28;20380;-59
2021/08/31 09:28:31;;;;;;;0.03;0.03;;;;;;;22.66;60.44;102433.09;10509625;28;20098;-59
2021/08/31 09:33:37;;;;;;;0.10;0.10;;;;;;;22.67;61.17;102442.09;10522562;28;20032;-59
2021/08/31 09:38:44;;;;;;;0.00;0.00;;;;;;;23.13;62.54;102434.19;10530018;28;20386;-60
2021/08/31 09:43:49;;;;;;;0.00;0.00;;;;;;;23.42;62.03;102440.34;10513713;28;20047;-60
2021/08/31 09:48:49;;;;;;;0.00;0.00;;;;;;;23.55;61.40;102436.78;10540944;28;20020;-60
2021/08/31 09:53:50;;;;;;;0.00;0.00;;;;;;;23.53;60.35;102436.16;10516542;28;20103;-61
2021/08/31 09:58:50;;;;;;;0.00;0.00;;;;;;;23.39;62.69;102436.16;10537869;28;20636;-59
2021/08/31 10:03:50;;;;;;;0.10;0.10;;;;;;;23.34;59.78;102443.25;10532370;28;20092;-60
2021/08/31 10:08:51;;;;;;;0.10;0.10;;;;;;;23.37;60.96;102430.06;10523469;28;20024;-60
2021/08/31 10:13:53;;;;;;;0.00;0.00;;;;;;;23.50;63.60;102434.69;10540156;28;20032;-60
2021/08/31 10:18:54;;;;;;;0.05;0.05;;;;;;;23.56;62.31;102425.72;10539964;28;20028;-59
2021/08/31 10:23:54;;;;;;;0.10;0.10;;;;;;;23.76;61.88;102428.47;10539396;28;20024;-60
2021/08/31 10:29:16;;;;;;;0.00;0.00;;;;;;;23.50;55.80;102429.25;10521727;28;20030;-61
2021/08/31 10:34:32;;;;;;;0.10;0.10;;;;;;;23.27;58.99;102422.31;10529025;28;20013;-61
2021/08/31 10:39:53;;;;;;;0.00;0.00;;;;;;;23.36;57.29;102431.13;10509084;28;20031;-60
2021/08/31 10:45:01;;;;;;;0.10;0.10;;;;;;;23.44;59.00;102428.19;10538383;28;20032;-60
2021/08/31 10:50:01;;;;;;;0.00;0.00;;;;;;;23.05;55.21;102435.19;10538823;28;20036;-61
2021/08/31 10:55:03;;;;;;;0.10;0.10;;;;;;;23.43;57.39;102431.94;10538589;28;20115;-60
2021/08/31 11:00:17;;;;;;;0.00;0.00;;;;;;;23.27;56.92;102429.59;10538417;28;20028;-60
2021/08/31 11:05:20;;;;;;;0.00;0.00;;;;;;;23.38;57.36;102431.72;10503126;28;20075;-60
2021/08/31 11:10:24;;;;;;;0.10;0.10;;;;;;;23.37;57.36;102437.38;10529587;28;20024;-60
2021/08/31 11:15:27;;;;;;;0.00;0.00;;;;;;;22.65;59.36;102441.44;10522895;28;20016;-61
2021/08/31 11:20:29;;;;;;;0.00;0.00;;;;;;;22.80;57.68;102432.09;10534980;28;20398;-60
2021/08/31 11:25:38;;;;;;;0.00;0.00;;;;;;;22.42;58.12;102428.97;10537109;28;20107;-61
2021/08/31 11:31:13;;;;;;;0.00;0.00;;;;;;;22.49;57.27;102437.19;10512482;28;20110;-60
2021/08/31 11:36:19;;;;;;;0.00;0.00;;;;;;;22.37;56.92;102432.31;10521061;28;20074;-60
2021/08/31 11:41:33;;;;;;;0.00;0.00;;;;;;;22.56;57.90;102436.16;10536960;28;20095;-61
2021/08/31 11:46:36;;;;;;;0.00;0.00;;;;;;;22.86;55.17;102433.19;10515186;28;20110;-61
2021/08/31 11:51:38;;;;;;;0.10;0.10;;;;;;;22.79;54.43;102430.44;10549918;22;20055;-61
2021/08/31 11:56:40;;;;;;;0.00;0.00;;;;;;;21.87;55.73;102438.75;10542346;28;20031;-63
2021/08/31 12:01:40;;;;;;;0.10;0.10;;;;;;;22.04;57.08;102442.03;10536123;28;20043;-61
2021/08/31 12:06:43;;;;;;;0.00;0.00;;;;;;;22.47;54.06;102436.53;10533594;28;20035;-63
2021/08/31 12:11:44;;;;;;;0.10;0.10;;;;;;;22.31;54.95;102437.66;10533937;28;20037;-61
2021/08/31 12:16:45;;;;;;;0.00;0.00;;;;;;;22.59;55.52;102446.63;10525752;28;20115;-60
2021/08/31 12:22:11;;;;;;;0.10;0.10;;;;;;;22.79;54.97;102443.19;10533680;28;20028;-62
2021/08/31 12:27:14;;;;;;;0.00;0.00;;;;;;;23.01;54.73;102441.25;10529741;28;20132;-63
2021/08/31 12:32:21;;;;;;;0.10;0.10;;;;;;;23.08;56.58;102444.81;10532867;28;20024;-63
2021/08/31 12:37:34;;;;;;;0.00;0.00;;;;;;;23.08;55.89;102443.97;10533346;28;20070;-63
2021/08/31 12:42:35;;;;;;;0.10;0.10;;;;;;;23.16;53.14;102438.38;10532778;28;20036;-63
2021/08/31 12:47:37;;;;;;;0.00;0.00;;;;;;;23.17;54.96;102442.75;10533435;28;20081;-63
2021/08/31 12:52:39;;;;;;;0.00;0.00;;;;;;;23.13;54.63;102439.63;10526324;28;20028;-62
2021/08/31 12:57:39;;;;;;;0.10;0.10;;;;;;;23.09;52.96;102443.75;10533559;28;20032;-62
2021/08/31 13:02:39;;;;;;;0.10;0.10;;;;;;;23.08;56.13;102435.84;10534861;28;20114;-62
2021/08/31 13:07:39;;;;;;;0.00;0.00;;;;;;;23.09;55.76;102437.50;10535086;28;20024;-62
2021/08/31 13:12:45;;;;;;;0.00;0.00;;;;;;;23.11;55.58;102436.25;10532142;28;20024;-62
2021/08/31 13:17:45;;;;;;;0.00;0.00;;;;;;;23.12;55.07;102431.66;10539836;28;20027;-62
2021/08/31 13:22:46;;;;;;;0.10;0.10;;;;;;;23.01;56.26;102430.38;10538512;28;20035;-62
2021/08/31 13:27:46;;;;;;;0.00;0.00;;;;;;;22.89;55.27;102427.34;10537590;28;20431;-62
2021/08/31 13:32:47;;;;;;;0.10;0.10;;;;;;;22.81;53.19;102425.66;10581656;28;20095;-62
2021/08/31 13:37:50;;;;;;;0.10;0.10;;;;;;;22.90;56.17;102425.50;10581759;28;20027;-62
2021/08/31 13:42:50;;;;;;;;;;;;;;;22.97;52.71;102419.06;10581017;28;20028;-62
2021/08/31 13:47:50;;;;;;;0.10;0.10;;;;;;;23.08;54.23;102422.25;10581314;28;19907;-62
2021/08/31 13:52:50;;;;;;;0.10;0.10;;;;;;;22.94;52.58;102413.16;10543886;28;20379;-62
2021/08/31 13:57:51;;;;;;;0.10;0.10;;;;;;;22.73;55.47;102404.09;10531721;28;20016;-63
2021/08/31 14:02:52;;;;;;;0.10;0.10;;;;;;;22.69;54.10;102413.69;10531386;28;20020;-62
2021/08/31 14:07:53;;;;;;;0.00;0.00;;;;;;;22.52;53.56;102415.91;10536787;28;20032;-62
2021/08/31 14:12:53;;;;;;;0.00;0.00;;;;;;;22.52;54.97;102413.19;10519210;28;20011;-62
2021/08/31 14:17:54;;;;;;;0.00;0.00;;;;;;;22.59;55.34;102411.31;10537720;28;20032;-62
2021/08/31 14:22:54;;;;;;;0.00;0.00;;;;;;;22.59;53.62;102411.31;10536946;28;20478;-62
2021/08/31 14:27:54;;;;;;;0.00;0.00;;;;;;;22.66;53.59;102408.66;10530281;28;20032;-62
2021/08/31 14:32:55;;;;;;;0.00;0.00;;;;;;;22.70;54.53;102404.50;10537297;28;20017;-62
2021/08/31 14:37:55;;;;;;;0.00;0.00;;;;;;;22.54;52.60;102408.41;10537226;28;20111;-63
2021/08/31 14:42:55;;;;;;;0.10;0.10;;;;;;;22.47;55.03;102412.09;10533101;28;20937;-62
2021/08/31 14:47:56;;;;;;;0.10;0.10;;;;;;;22.36;54.61;102414.31;10536955;28;20115;-62
2021/08/31 14:52:56;;;;;;;0.00;0.00;;;;;;;22.22;53.14;102415.25;10536574;28;20306;-62
2021/08/31 14:57:56;;;;;;;0.00;0.00;;;;;;;22.20;55.07;102411.94;10536076;28;20115;-61
2021/08/31 15:02:57;;;;;;;0.10;0.10;;;;;;;22.11;55.57;102405.78;10534395;28;20382;-63
2021/08/31 15:07:57;;;;;;;0.00;0.00;;;;;;;21.95;56.06;102406.06;10536117;28;20038;-62
2021/08/31 15:12:58;;;;;;;0.07;0.07;;;;;;;21.76;53.74;102395.88;10535337;28;20028;-62
2021/08/31 15:17:58;;;;;;;0.00;0.00;;;;;;;21.64;54.38;102387.44;10534460;28;20032;-62
2021/08/31 15:23:00;;;;;;;0.10;0.10;;;;;;;21.51;56.29;102395.47;10533191;28;20364;-62
2021/08/31 15:28:00;;;;;;;0.00;0.00;;;;;;;21.32;56.10;102396.88;10530078;28;20090;-62
2021/08/31 15:33:00;;;;;;;0.00;0.00;;;;;;;21.19;56.72;102397.59;10534055;28;20034;-61
2021/08/31 15:38:01;;;;;;;0.10;0.10;;;;;;;21.08;56.74;102392.66;10552424;28;20027;-62
2021/08/31 15:43:01;;;;;;;0.00;0.00;;;;;;;20.98;57.24;102387.56;10575915;28;20505;-62
2021/08/31 15:48:01;;;;;;;0.00;0.00;;;;;;;20.92;57.86;102399.16;10576437;28;20388;-62
2021/08/31 15:53:02;;;;;;;0.10;0.10;;;;;;;20.86;62.31;102403.47;10575186;28;20261;-62
2021/08/31 15:58:03;;;;;;;0.00;0.00;;;;;;;20.74;65.48;102408.53;10574476;28;20019;-62
2021/08/31 16:03:04;;;;;;;0.00;0.00;;;;;;;20.66;66.82;102389.66;10574082;28;20517;-62
2021/08/31 16:08:05;;;;;;;0.10;0.10;;;;;;;20.60;67.54;102412.06;10530292;28;20020;-62
2021/08/31 16:13:06;;;;;;;0.10;0.10;;;;;;;20.46;69.55;102415.59;10531672;28;20080;-63
2021/08/31 16:18:07;;;;;;;0.10;0.10;;;;;;;20.29;71.29;102413.06;10531939;28;20057;-62
2021/08/31 16:23:07;;;;;;;0.08;0.08;;;;;;;20.15;72.79;102411.16;10531091;28;20386;-62
2021/08/31 16:28:07;;;;;;;0.00;0.00;;;;;;;20.01;74.23;102407.44;10522229;28;20562;-62
2021/08/31 16:33:08;;;;;;;0.10;0.10;;;;;;;19.87;75.83;102410.94;10527357;28;20274;-62
2021/08/31 16:38:08;;;;;;;0.00;0.00;;;;;;;19.66;76.16;102408.88;10531785;28;20020;-62
2021/08/31 16:43:08;;;;;;;0.10;0.10;;;;;;;19.51;76.79;102413.38;10530832;28;20035;-61
2021/08/31 16:48:09;;;;;;;0.00;0.00;;;;;;;19.33;77.04;102414.50;10531246;28;20020;-61
2021/08/31 16:53:09;;;;;;;0.10;0.10;;;;;;;19.18;77.09;102416.28;10492499;28;1079695;-61
2021/08/31 16:58:10;;;;;;;0.00;0.00;;;;;;;19.02;77.66;102424.47;10541029;28;20020;-61
2021/08/31 17:03:11;;;;;;;0.00;0.00;;;;;;;18.85;78.26;102431.78;10540785;28;20447;-61
2021/08/31 17:08:11;;;;;;;0.00;0.00;;;;;;;18.64;78.83;102435.88;10540554;28;20043;-62
2021/08/31 17:13:12;;;;;;;0.10;0.10;;;;;;;18.44;79.61;102442.66;10537998;28;20020;-61
2021/08/31 17:18:13;;;;;;;0.10;0.10;;;;;;;18.24;80.34;102439.53;10539564;28;20274;-61
2021/08/31 17:23:13;;;;;;;0.05;0.05;;;;;;;18.03;80.89;102443.56;10539246;28;20549;-62
2021/08/31 17:28:13;;;;;;;0.10;0.10;;;;;;;17.87;82.08;102449.81;10530825;28;20028;-62
2021/08/31 17:33:13;;;;;;;0.00;0.00;;;;;;;17.73;82.70;102438.81;10532315;28;20347;-62
2021/08/31 17:38:14;;;;;;;0.10;0.10;;;;;;;17.57;82.93;102448.56;10533732;28;20024;-61
2021/08/31 17:43:14;;;;;;;0.00;0.00;;;;;;;17.41;83.53;102448.53;10532672;28;20020;-61
2021/08/31 17:48:14;;;;;;;0.00;0.00;;;;;;;17.25;84.05;102456.56;10538873;28;20096;-62
2021/08/31 17:53:15;;;;;;;0.00;0.00;;;;;;;17.10;84.61;102459.88;10510943;22;20451;-62
2021/08/31 17:58:15;;;;;;;0.10;0.10;;;;;;;16.96;84.88;102465.91;10507947;28;20032;-61
2021/08/31 18:03:15;;;;;;;0.10;0.10;;;;;;;16.81;85.51;102467.47;10537411;28;20461;-62
2021/08/31 18:08:16;;;;;;;0.08;0.08;;;;;;;16.63;85.94;102468.34;10538904;28;20016;-64
2021/08/31 18:13:16;;;;;;;0.10;0.10;;;;;;;16.48;86.53;102478.03;10538058;28;20020;-63
2021/08/31 18:18:16;;;;;;;0.10;0.10;;;;;;;16.35;86.87;102488.34;10538014;28;20640;-62
2021/08/31 18:23:18;;;;;;;0.10;0.10;;;;;;;16.20;87.43;102493.44;10512301;28;20036;-63
2021/08/31 18:28:19;;;;;;;0.00;0.00;;;;;;;16.07;87.78;102500.06;10488946;28;20492;-64
2021/08/31 18:33:23;;;;;;;0.10;0.10;;;;;;;15.97;88.15;102501.13;10495602;28;20020;-62
2021/08/31 18:38:23;;;;;;;0.10;0.10;;;;;;;15.83;88.59;102521.34;10495250;28;20097;-63
2021/08/31 18:43:25;;;;;;;0.10;0.10;;;;;;;15.70;89.44;102523.53;10494617;28;20061;-64
2021/08/31 18:48:25;;;;;;;0.10;0.10;;;;;;;15.58;89.73;102526.41;10494737;28;20706;-63
2021/08/31 18:53:26;;;;;;;0.10;0.10;;;;;;;15.45;90.49;102533.16;10494044;28;20115;-63
2021/08/31 18:58:26;;;;;;;0.10;0.10;;;;;;;15.33;90.85;102544.09;10487227;28;20029;-61
2021/08/31 19:03:27;;;;;;;0.10;0.10;;;;;;;15.23;90.99;102535.22;10493411;28;20031;-63
2021/08/31 19:08:27;;;;;;;0.10;0.10;;;;;;;15.14;91.58;102534.25;10475865;28;20028;-63
2021/08/31 19:13:28;;;;;;;0.10;0.10;;;;;;;15.07;91.88;102551.13;10492934;28;20263;-62
2021/08/31 19:18:28;;;;;;;0.10;0.10;;;;;;;15.00;92.52;102558.88;10484797;28;20115;-62
2021/08/31 19:23:28;;;;;;;0.10;0.10;;;;;;;14.91;92.94;102563.28;10492728;28;20025;-60
2021/08/31 19:28:30;;;;;;;0.10;0.10;;;;;;;14.85;93.06;102554.97;10488734;28;20525;-63
2021/08/31 19:33:30;;;;;;;0.10;0.10;;;;;;;14.78;92.99;102562.78;10490999;28;20463;-63
2021/08/31 19:38:31;;;;;;;0.10;0.10;;;;;;;14.73;93.55;102558.81;10492834;28;20032;-63
2021/08/31 19:43:32;;;;;;;0.10;0.10;;;;;;;14.70;93.57;102562.63;10473566;28;20109;-61
2021/08/31 19:48:32;;;;;;;0.10;0.10;;;;;;;14.65;94.40;102556.84;10491124;28;20024;-63
2021/08/31 19:53:32;;;;;;;0.10;0.10;;;;;;;14.61;94.29;102564.34;10490305;28;20120;-60
2021/08/31 19:58:33;;;;;;;0.20;0.20;;;;;;;14.58;94.42;102569.16;10490754;28;20024;-62
2021/08/31 20:03:33;;;;;;;0.10;0.10;;;;;;;14.51;94.20;102566.16;10489942;28;20027;-60
2021/08/31 20:08:33;;;;;;;0.10;0.10;;;;;;;14.46;94.98;102568.44;10469096;28;20271;-63
2021/08/31 20:13:34;;;;;;;0.10;0.10;;;;;;;14.41;95.21;102566.16;10468887;28;20021;-60
2021/08/31 20:18:34;;;;;;;0.10;0.10;;;;;;;14.37;94.89;102561.22;10487814;28;20271;-61
2021/08/31 20:23:34;;;;;;;0.10;0.10;;;;;;;14.35;95.08;102572.09;10467402;28;20272;-60
2021/08/31 20:28:35;;;;;;;0.10;0.10;;;;;;;14.32;94.78;102558.97;10457549;28;20271;-60
2021/08/31 20:33:35;;;;;;;0.10;0.10;;;;;;;14.28;95.20;102573.63;10457121;28;20025;-61
2021/08/31 20:38:36;;;;;;;0.10;0.10;;;;;;;14.24;95.65;102578.44;10472196;28;20369;-60
2021/08/31 20:43:36;;;;;;;0.10;0.10;;;;;;;14.21;95.41;102584.06;10456717;28;20287;-59
2021/08/31 20:48:36;;;;;;;0.10;0.10;;;;;;;14.20;95.81;102585.06;10456795;28;20277;-60
2021/08/31 20:53:37;;;;;;;0.10;0.10;;;;;;;14.20;95.69;102590.44;10461589;28;20506;-59
2021/08/31 20:58:37;;;;;;;0.10;0.10;;;;;;;14.19;95.75;102594.09;10438811;28;20032;-61
2021/08/31 21:03:37;;;;;;;0.10;0.10;;;;;;;14.14;95.27;102599.03;10455768;28;20033;-62
2021/08/31 21:08:38;;;;;;;0.10;0.10;;;;;;;14.10;95.06;102602.13;10471248;28;20017;-62
2021/08/31 21:13:38;;;;;;;0.10;0.10;;;;;;;14.09;95.61;102608.47;10465486;28;20059;-62
2021/08/31 21:18:38;;;;;;;0.10;0.10;;;;;;;14.04;95.41;102601.69;10460983;28;20044;-62
2021/08/31 21:23:40;;;;;;;0.10;0.10;;;;;;;14.00;94.81;102604.78;10465911;28;20032;-59
2021/08/31 21:28:40;;;;;;;0.10;0.10;;;;;;;13.94;95.51;102610.72;10482508;28;20021;-60
2021/08/31 21:33:40;;;;;;;0.10;0.10;;;;;;;13.93;95.42;102622.38;10458768;28;20463;-62
2021/08/31 21:38:41;;;;;;;0.10;0.10;;;;;;;13.89;95.41;102623.66;10457629;28;20332;-62
2021/08/31 21:43:41;;;;;;;0.10;0.10;;;;;;;13.85;95.48;102625.78;10464146;28;20104;-62
2021/08/31 21:48:41;;;;;;;0.10;0.10;;;;;;;13.84;96.09;102634.78;10473001;28;20035;-59
2021/08/31 21:53:42;;;;;;;0.10;0.10;;;;;;;13.84;96.04;102640.13;10463549;28;20032;-63
2021/08/31 21:58:42;;;;;;;0.10;0.10;;;;;;;13.83;95.71;102635.78;10469394;28;20029;-59
2021/08/31 22:03:42;;;;;;;0.10;0.10;;;;;;;13.79;96.02;102637.03;10465062;28;20041;-63
2021/08/31 22:08:43;;;;;;;0.10;0.10;;;;;;;13.75;96.54;102633.75;10475957;28;20279;-60
2021/08/31 22:13:43;;;;;;;0.10;0.10;;;;;;;13.75;96.50;102639.13;10453384;28;20256;-63
2021/08/31 22:18:44;;;;;;;0.10;0.10;;;;;;;13.74;96.82;102640.09;10472256;28;20021;-63
2021/08/31 22:23:44;;;;;;;0.03;0.03;;;;;;;13.76;96.68;102640.00;10452751;28;20029;-59
2021/08/31 22:28:45;;;;;;;0.10;0.10;;;;;;;13.74;96.93;102642.78;10474998;28;20050;-61
2021/08/31 22:33:45;;;;;;;0.10;0.10;;;;;;;13.71;96.81;102644.91;10452222;28;20025;-59
2021/08/31 22:38:46;;;;;;;0.10;0.10;;;;;;;13.65;96.43;102630.22;10483638;28;20396;-62
2021/08/31 22:43:47;;;;;;;0.10;0.10;;;;;;;13.61;96.97;102641.31;10493192;28;20029;-61
2021/08/31 22:48:47;;;;;;;0.10;0.10;;;;;;;13.59;96.92;102657.53;10493134;28;20162;-60
2021/08/31 22:53:47;;;;;;;0.10;0.10;;;;;;;13.64;97.08;102654.44;10491284;28;20020;-62
2021/08/31 22:58:48;;;;;;;0.10;0.10;;;;;;;13.67;96.46;102663.06;10467504;28;20028;-60
2021/08/31 23:03:48;;;;;;;0.10;0.10;;;;;;;13.66;96.55;102645.28;10451341;28;20095;-61